CST,Max TemperatureF,Mean TemperatureF,Min TemperatureF,Max Dew PointF,MeanDew PointF,Min DewpointF,Max Humidity, Mean Humidity, Min Humidity, Max Sea Level PressureIn, Mean Sea Level PressureIn, Min Sea Level PressureIn, Max VisibilityMiles, Mean VisibilityMiles, Min VisibilityMiles, Max Wind SpeedMPH, Mean Wind SpeedMPH, Max Gust SpeedMPH,PrecipitationIn, CloudCover, Events, WindDirDegrees
2013-11-1,42,40,37,41,37,34,93,87,76,29.73,29.49,29.25,10,8,2,13,6,17,0.12,8,,318
2013-11-2,42,36,30,34,32,28,93,86,70,30.08,29.93,29.73,10,9,2,10,3,,0.23,7,,261
2013-11-3,44,36,28,32,29,25,93,73,57,30.17,30.10,30.00,10,10,10,21,6,33,0.01,3,,148
2013-11-4,44,40,37,39,35,28,87,73,61,30.06,29.93,29.84,10,10,4,23,16,34,0.14,6,,187
2013-11-5,46,39,32,30,28,25,93,68,46,30.17,30.10,29.97,10,9,2,15,7,20,0.16,3,,228
2013-11-6,33,32,30,30,26,19,87,77,64,30.03,29.94,29.88,10,8,2,14,5,20,0.09,8,,295
2013-11-7,33,30,28,25,22,18,86,70,60,30.10,30.07,30.03,10,10,2,14,10,,0.00,8,,252
2013-11-8,35,27,19,30,20,14,86,77,64,30.12,30.00,29.61,10,9,5,16,5,30,0.14,2,,196
2013-11-9,37,35,33,34,31,28,93,82,70,29.93,29.69,29.53,10,8,2,22,14,30,0.09,8,,254
2013-11-10,39,36,33,30,26,23,87,68,52,30.19,30.08,29.95,10,9,2,17,13,26,0.03,6,,263
2013-11-11,33,27,21,28,14,10,86,67,59,30.53,30.29,29.99,10,9,1,20,14,28,0.00,8,,326
2013-11-12,26,20,14,12,7,3,79,58,37,30.60,30.50,30.32,10,10,5,15,11,20,0.00,3,,256
2013-11-13,48,34,21,30,20,7,70,56,43,30.30,29.92,29.72,10,10,10,23,13,36,0.00,0,,219
2013-11-14,44,40,37,30,29,28,75,66,57,29.76,29.73,29.69,10,10,10,12,8,16,0.00,3,,219
2013-11-15,51,42,33,34,32,28,81,67,47,29.77,29.73,29.69,10,10,10,14,7,21,0.00,2,,211
2013-11-16,48,44,41,45,36,30,93,75,61,29.68,29.46,29.24,10,9,5,16,9,28,0.56,6,,166
2013-11-17,51,43,35,46,39,28,87,81,75,29.49,29.29,29.20,10,9,2,25,11,38,0.01,5,,246
2013-11-18,32,29,26,21,18,16,69,64,59,30.18,29.88,29.50,10,10,5,25,19,36,0.00,8,,298
2013-11-19,37,29,21,18,17,16,86,57,41,30.24,30.11,29.93,10,10,10,23,7,37,0.00,5,,169
2013-11-20,42,38,33,28,22,18,81,56,39,30.02,29.96,29.91,10,9,2,24,14,36,0.01,8,,174
2013-11-21,35,30,24,32,27,19,87,83,80,30.38,30.16,30.01,10,5,2,14,7,20,0.02,8,,287
2013-11-22,30,22,15,19,12,3,80,64,34,30.42,30.36,30.26,10,9,1,23,10,30,0.00,6,,291
2013-11-23,15,12,10,9,2,-2,85,66,53,30.62,30.56,30.41,10,7,0,18,13,28,0.00,8,,315
2013-11-24,26,12,1,10,1,-8,85,63,49,30.55,30.22,29.77,10,9,3,21,10,38,0.00,4,,208
2013-11-25,35,30,26,25,21,12,80,66,55,29.88,29.76,29.69,10,10,2,23,18,34,0.00,8,,253
2013-11-26,26,19,12,19,9,3,93,72,54,30.18,30.05,29.88,10,4,0,20,12,30,0.00,8,,310
2013-11-27,21,19,17,16,13,10,86,77,68,30.22,30.15,30.07,10,5,0,10,5,22,0.00,8,,14
2013-11-28,24,20,17,19,14,10,93,77,63,30.37,30.18,30.05,10,7,1,13,5,16,0.00,7,,237
2013-11-29,24,22,19,18,15,12,93,74,59,30.47,30.35,30.15,10,9,2,14,8,23,0.00,7,,199
2013-11-30,32,29,26,27,20,16,86,71,64,30.13,30.03,29.97,10,9,2,15,8,24,0.00,5,,231